Terminal Aerodrome Forecast
Issued by NWS Paducah, KY

Home | Current Version | Previous Version | Text Only | Print | Product List | Glossary Off
Versions: 1 2 3 4 5 6 7 8 9 10 11 12 13 14 15 16 17 18 19 20 21 22 23 24 25 26

000
FTUS43 KPAH 221319 AAA
TAFPAH
TAF AMD
KPAH 221319Z 2213/2312 17012G19KT P6SM -RA SCT020 BKN040
     FM221400 18012G20KT P6SM VCSH BKN015
     FM221600 20017G29KT P6SM SCT090
     FM230100 24012G22KT P6SM BKN070
     FM230900 25013G23KT P6SM BKN030=

USA.gov is the U.S. government's official web portal to all federal, state and local government web resources and services.